Alden, Illinois
Current Conditions -  °F | °C
As of 8:35 AM on Sunday 23 Nov 2014 (Local Time) from KBUU Reporting Station
Overcast Overcast  
Wind Chill: 42°   Ceiling: 1900
Heat Index: 47°   Visibility: 10mi
Dew Point: 43°   Wind: 10mph
Humidity: 85%   Direction: 190°S
Pressure: 29.7"   Gusts: NA
Location:  42.46°N, 88.52°W
Report Text: KBUU 231435Z AUTO 19009KT 10SM OVC019 08/06 A2970 RMK AO2 T00820059
Loading
Personal Weather Stations






























Interactive Weather Map New forecast layout! Learn more

10-Day Weather Forecast

Advertisements
Track Severe Weather on mobile